Time,TemperatureF,DewpointF,PressureIn,WindDirection,WindDirectionDegrees,WindSpeedMPH,WindSpeedGustMPH,Humidity,HourlyPrecipIn,Conditions,Clouds,dailyrainin,SoftwareType,DateUTC
2013-01-22 00:01:00,33.8,22.5,30.21,ENE,65,0.0,0.0,63,0.00,,SKC,0.00,VWS V14.01,2013-01-22 06:01:00,
2013-01-22 00:06:00,33.7,22.5,30.21,ENE,65,0.0,0.0,63,0.00,,SKC,0.00,VWS V14.01,2013-01-22 06:06:00,
2013-01-22 00:12:00,33.4,22.5,30.21,ENE,65,0.0,0.0,64,0.00,,SKC,0.00,VWS V14.01,2013-01-22 06:12:00,
2013-01-22 00:17:00,33.1,22.3,30.21,ENE,65,0.0,0.0,64,0.00,,SKC,0.00,VWS V14.01,2013-01-22 06:17:00,
2013-01-22 00:22:00,32.9,22.4,30.21,ENE,65,0.0,0.0,65,0.00,,SKC,0.00,VWS V14.01,2013-01-22 06:22:00,
2013-01-22 00:27:00,32.7,22.2,30.21,ENE,65,0.0,0.0,65,0.00,,SKC,0.00,VWS V14.01,2013-01-22 06:27:00,
2013-01-22 00:32:00,32.5,22.4,30.21,ENE,65,0.0,0.0,66,0.00,,SKC,0.00,VWS V14.01,2013-01-22 06:32:00,
2013-01-22 00:37:00,32.2,22.1,30.21,ENE,65,0.0,0.0,66,0.00,,SKC,0.00,VWS V14.01,2013-01-22 06:37:00,
2013-01-22 00:42:00,31.9,22.2,30.21,ENE,65,0.0,0.0,67,0.00,,SKC,0.00,VWS V14.01,2013-01-22 06:42:00,
2013-01-22 00:47:00,31.8,21.8,30.21,ENE,65,0.0,0.0,66,0.00,,SKC,0.00,VWS V14.01,2013-01-22 06:47:00,
2013-01-22 00:52:00,31.9,21.9,30.21,ENE,65,0.0,0.0,66,0.00,,SKC,0.00,VWS V14.01,2013-01-22 06:52:00,
2013-01-22 00:57:00,32.0,21.9,30.21,ENE,65,0.0,0.0,66,0.00,,SKC,0.00,VWS V14.01,2013-01-22 06:57:00,
2013-01-22 01:02:00,31.9,22.2,30.21,ENE,65,0.0,0.0,67,0.00,,SKC,0.00,VWS V14.01,2013-01-22 07:02:00,
2013-01-22 01:07:00,31.8,22.1,30.21,ENE,65,0.0,0.0,67,0.00,,SKC,0.00,VWS V14.01,2013-01-22 07:07:00,
2013-01-22 01:13:00,31.7,22.0,30.21,ENE,65,0.0,0.0,67,0.00,,SKC,0.00,VWS V14.01,2013-01-22 07:13:00,
2013-01-22 01:18:00,31.7,22.4,30.21,North,360,0.0,1.0,68,0.00,,SKC,0.00,VWS V14.01,2013-01-22 07:18:00,
2013-01-22 01:23:00,31.7,22.4,30.21,North,360,0.0,0.0,68,0.00,,SKC,0.00,VWS V14.01,2013-01-22 07:23:00,
2013-01-22 01:28:00,31.5,22.2,30.22,North,360,0.0,0.0,68,0.00,,SKC,0.00,VWS V14.01,2013-01-22 07:28:00,
2013-01-22 01:33:00,31.5,22.2,30.21,North,360,0.0,0.0,68,0.00,,SKC,0.00,VWS V14.01,2013-01-22 07:33:00,
2013-01-22 01:38:00,31.4,22.1,30.22,North,360,0.0,0.0,68,0.00,,SKC,0.00,VWS V14.01,2013-01-22 07:38:00,
2013-01-22 01:43:00,31.4,22.4,30.22,NNE,15,0.0,0.0,69,0.00,,SKC,0.00,VWS V14.01,2013-01-22 07:43:00,
2013-01-22 01:48:00,31.3,22.0,30.22,NNE,16,0.0,0.0,68,0.00,,SKC,0.00,VWS V14.01,2013-01-22 07:48:00,
2013-01-22 01:53:00,31.2,21.9,30.22,NNE,16,0.0,0.0,68,0.00,,SKC,0.00,VWS V14.01,2013-01-22 07:53:00,
2013-01-22 01:58:00,31.2,21.9,30.22,NE,48,0.0,0.0,68,0.00,,SKC,0.00,VWS V14.01,2013-01-22 07:58:00,
2013-01-22 02:03:00,31.2,21.5,30.22,ENE,60,0.0,1.0,67,0.00,,SKC,0.00,VWS V14.01,2013-01-22 08:03:00,
2013-01-22 02:08:00,31.4,21.7,30.23,East,94,0.0,0.0,67,0.00,,SKC,0.00,VWS V14.01,2013-01-22 08:08:00,
2013-01-22 02:13:00,31.4,21.7,30.22,WSW,238,0.0,0.0,67,0.00,,SKC,0.00,VWS V14.01,2013-01-22 08:13:00,
2013-01-22 02:18:00,31.2,21.5,30.23,NE,53,0.0,0.0,67,0.00,,SKC,0.00,VWS V14.01,2013-01-22 08:18:00,
2013-01-22 02:23:00,31.3,21.3,30.23,NE,53,1.0,2.0,66,0.00,,SKC,0.00,VWS V14.01,2013-01-22 08:23:00,
2013-01-22 02:28:00,31.4,21.0,30.23,NE,40,1.0,1.0,65,0.00,,SKC,0.00,VWS V14.01,2013-01-22 08:28:00,
2013-01-22 02:33:00,31.5,21.5,30.23,NE,40,0.0,0.0,66,0.00,,SKC,0.00,VWS V14.01,2013-01-22 08:33:00,
2013-01-22 02:38:00,31.2,21.2,30.24,NE,44,1.0,2.0,66,0.00,,SKC,0.00,VWS V14.01,2013-01-22 08:38:00,
2013-01-22 02:43:00,31.1,21.1,30.23,NE,44,0.0,0.0,66,0.00,,SKC,0.00,VWS V14.01,2013-01-22 08:43:00,
2013-01-22 02:48:00,30.9,21.2,30.24,NE,44,1.0,1.0,67,0.00,,SKC,0.00,VWS V14.01,2013-01-22 08:48:00,
2013-01-22 02:54:00,30.6,21.0,30.24,NE,44,0.0,0.0,67,0.00,,SKC,0.00,VWS V14.01,2013-01-22 08:54:00,
2013-01-22 02:59:00,30.5,20.9,30.24,NE,44,0.0,0.0,67,0.00,,SKC,0.00,VWS V14.01,2013-01-22 08:59:00,
2013-01-22 03:04:00,30.3,20.7,30.24,NE,44,0.0,1.0,67,0.00,,SKC,0.00,VWS V14.01,2013-01-22 09:04:00,
2013-01-22 03:09:00,30.2,20.9,30.24,NE,44,0.0,0.0,68,0.00,,SKC,0.00,VWS V14.01,2013-01-22 09:09:00,
2013-01-22 03:14:00,30.1,20.8,30.24,NE,53,0.0,2.0,68,0.00,,SKC,0.00,VWS V14.01,2013-01-22 09:14:00,
2013-01-22 03:19:00,30.1,20.5,30.24,NE,54,0.0,0.0,67,0.00,,SKC,0.00,VWS V14.01,2013-01-22 09:19:00,
2013-01-22 03:24:00,30.1,20.5,30.24,ENE,57,0.0,0.0,67,0.00,,SKC,0.00,VWS V14.01,2013-01-22 09:24:00,
2013-01-22 03:29:00,30.1,20.5,30.24,ENE,57,0.0,0.0,67,0.00,,SKC,0.00,VWS V14.01,2013-01-22 09:29:00,
2013-01-22 03:34:00,30.0,20.7,30.24,ENE,57,0.0,0.0,68,0.00,,SKC,0.00,VWS V14.01,2013-01-22 09:34:00,
2013-01-22 03:39:00,29.8,20.5,30.25,ENE,57,0.0,1.0,68,0.00,,SKC,0.00,VWS V14.01,2013-01-22 09:39:00,
2013-01-22 03:44:00,29.7,20.8,30.25,ENE,57,0.0,0.0,69,0.00,,SKC,0.00,VWS V14.01,2013-01-22 09:44:00,
2013-01-22 03:49:00,29.5,20.6,30.25,ENE,57,1.0,1.0,69,0.00,,SKC,0.00,VWS V14.01,2013-01-22 09:49:00,
2013-01-22 03:54:00,29.5,20.3,30.25,NE,56,0.0,0.0,68,0.00,,SKC,0.00,VWS V14.01,2013-01-22 09:54:00,
2013-01-22 03:59:00,29.4,20.5,30.25,ENE,59,0.0,0.0,69,0.00,,SKC,0.00,VWS V14.01,2013-01-22 09:59:00,
2013-01-22 04:04:00,29.4,20.5,30.25,ENE,59,0.0,0.0,69,0.00,,SKC,0.00,VWS V14.01,2013-01-22 10:04:00,
2013-01-22 04:09:00,29.1,20.5,30.26,ENE,59,0.0,0.0,70,0.00,,SKC,0.00,VWS V14.01,2013-01-22 10:09:00,
2013-01-22 04:14:00,29.0,20.1,30.26,ENE,59,0.0,0.0,69,0.00,,SKC,0.00,VWS V14.01,2013-01-22 10:14:00,
2013-01-22 04:19:00,29.0,20.1,30.26,ENE,59,0.0,1.0,69,0.00,,SKC,0.00,VWS V14.01,2013-01-22 10:19:00,
2013-01-22 04:25:00,28.9,20.4,30.26,NE,38,0.0,0.0,70,0.00,,SKC,0.00,VWS V14.01,2013-01-22 10:25:00,
2013-01-22 04:30:00,28.8,20.3,30.26,NE,38,0.0,0.0,70,0.00,,SKC,0.00,VWS V14.01,2013-01-22 10:30:00,
2013-01-22 04:35:00,28.7,20.2,30.26,NE,39,0.0,0.0,70,0.00,,SKC,0.00,VWS V14.01,2013-01-22 10:35:00,
2013-01-22 04:40:00,28.5,20.0,30.26,NE,39,0.0,0.0,70,0.00,,SKC,0.00,VWS V14.01,2013-01-22 10:40:00,
2013-01-22 04:45:00,28.4,19.9,30.26,NE,39,0.0,0.0,70,0.00,,SKC,0.00,VWS V14.01,2013-01-22 10:45:00,
2013-01-22 04:50:00,28.2,19.7,30.26,NE,39,0.0,0.0,70,0.00,,SKC,0.00,VWS V14.01,2013-01-22 10:50:00,
2013-01-22 04:55:00,28.0,19.5,30.27,NE,39,0.0,0.0,70,0.00,,SKC,0.00,VWS V14.01,2013-01-22 10:55:00,
2013-01-22 05:00:00,28.0,19.8,30.27,NE,38,0.0,0.0,71,0.00,,SKC,0.00,VWS V14.01,2013-01-22 11:00:00,
2013-01-22 05:05:00,28.0,20.2,30.27,NE,38,0.0,0.0,72,0.00,,SKC,0.00,VWS V14.01,2013-01-22 11:05:00,
2013-01-22 05:10:00,27.8,20.3,30.27,NE,39,0.0,0.0,73,0.00,,SKC,0.00,VWS V14.01,2013-01-22 11:10:00,
2013-01-22 05:15:00,27.6,19.8,30.27,NE,39,0.0,0.0,72,0.00,,SKC,0.00,VWS V14.01,2013-01-22 11:15:00,
2013-01-22 05:20:00,27.5,20.9,30.28,NE,39,0.0,0.0,76,0.00,,SKC,0.00,VWS V14.01,2013-01-22 11:20:00,
2013-01-22 05:25:00,27.5,19.7,30.28,NE,39,0.0,0.0,72,0.00,,SKC,0.00,VWS V14.01,2013-01-22 11:25:00,
2013-01-22 05:30:00,27.5,19.7,30.29,NE,39,0.0,0.0,72,0.00,,SKC,0.00,VWS V14.01,2013-01-22 11:30:00,
2013-01-22 05:35:00,27.5,19.7,30.29,NE,38,0.0,0.0,72,0.00,,SKC,0.00,VWS V14.01,2013-01-22 11:35:00,
2013-01-22 05:40:00,27.4,19.6,30.29,NE,38,0.0,0.0,72,0.00,,SKC,0.00,VWS V14.01,2013-01-22 11:40:00,
2013-01-22 05:45:00,27.3,19.8,30.30,NE,38,0.0,0.0,73,0.00,,SKC,0.00,VWS V14.01,2013-01-22 11:45:00,
2013-01-22 05:50:00,27.2,19.7,30.30,NE,39,0.0,0.0,73,0.00,,SKC,0.00,VWS V14.01,2013-01-22 11:50:00,
2013-01-22 05:55:00,27.0,19.8,30.30,NE,39,0.0,0.0,74,0.00,,SKC,0.00,VWS V14.01,2013-01-22 11:55:00,
2013-01-22 06:00:00,26.9,19.7,30.30,NE,39,0.0,0.0,74,0.00,,SKC,0.00,VWS V14.01,2013-01-22 12:00:00,
2013-01-22 06:05:00,26.9,19.7,30.31,NE,38,0.0,0.0,74,0.00,,SKC,0.00,VWS V14.01,2013-01-22 12:05:00,
2013-01-22 06:10:00,26.8,20.3,30.31,NE,39,0.0,0.0,76,0.00,,SKC,0.00,VWS V14.01,2013-01-22 12:10:00,
2013-01-22 06:15:00,26.6,19.8,30.31,NE,39,0.0,0.0,75,0.00,,SKC,0.00,VWS V14.01,2013-01-22 12:15:00,
2013-01-22 06:20:00,26.5,20.0,30.31,NE,39,0.0,0.0,76,0.00,,SKC,0.00,VWS V14.01,2013-01-22 12:20:00,
2013-01-22 06:25:00,26.4,19.9,30.31,NE,39,0.0,0.0,76,0.00,,SKC,0.00,VWS V14.01,2013-01-22 12:25:00,
2013-01-22 06:30:00,26.3,20.1,30.31,NE,38,0.0,0.0,77,0.00,,SKC,0.00,VWS V14.01,2013-01-22 12:30:00,
2013-01-22 06:36:00,26.2,20.0,30.31,NE,38,0.0,0.0,77,0.00,,SKC,0.00,VWS V14.01,2013-01-22 12:36:00,
2013-01-22 06:41:00,26.2,19.7,30.31,NE,38,0.0,0.0,76,0.00,,SKC,0.00,VWS V14.01,2013-01-22 12:41:00,
2013-01-22 06:46:00,26.1,19.6,30.32,NE,38,0.0,0.0,76,0.00,,SKC,0.00,VWS V14.01,2013-01-22 12:46:00,
2013-01-22 06:51:00,26.1,19.9,30.32,NE,39,0.0,0.0,77,0.00,,SKC,0.00,VWS V14.01,2013-01-22 12:51:00,
2013-01-22 06:56:00,26.1,19.9,30.32,NE,38,0.0,0.0,77,0.00,,SKC,0.00,VWS V14.01,2013-01-22 12:56:00,
2013-01-22 07:01:00,26.1,20.2,30.32,NE,38,0.0,0.0,78,0.00,,SKC,0.00,VWS V14.01,2013-01-22 13:01:00,
2013-01-22 07:06:00,26.1,20.2,30.33,NE,38,0.0,0.0,78,0.00,,SKC,0.00,VWS V14.01,2013-01-22 13:06:00,
2013-01-22 07:11:00,26.2,20.6,30.32,NE,39,0.0,0.0,79,0.00,,SKC,0.00,VWS V14.01,2013-01-22 13:11:00,
2013-01-22 07:16:00,26.4,20.8,30.33,NE,39,0.0,0.0,79,0.00,,SKC,0.00,VWS V14.01,2013-01-22 13:16:00,
2013-01-22 07:22:00,26.7,21.1,30.33,NE,38,0.0,0.0,79,0.00,,SKC,0.00,VWS V14.01,2013-01-22 13:22:00,
2013-01-22 07:27:00,27.1,21.2,30.33,NE,38,0.0,0.0,78,0.00,,SKC,0.00,VWS V14.01,2013-01-22 13:27:00,
2013-01-22 07:32:00,27.6,21.4,30.33,NE,39,0.0,0.0,77,0.00,,SKC,0.00,VWS V14.01,2013-01-22 13:32:00,
2013-01-22 07:37:00,28.3,21.4,30.33,NE,39,0.0,0.0,75,0.00,,SKC,0.00,VWS V14.01,2013-01-22 13:37:00,
2013-01-22 07:42:00,28.8,21.2,30.33,NE,39,0.0,0.0,73,0.00,,SKC,0.00,VWS V14.01,2013-01-22 13:42:00,
2013-01-22 07:47:00,29.1,21.2,30.34,NE,38,0.0,0.0,72,0.00,,SKC,0.00,VWS V14.01,2013-01-22 13:47:00,
2013-01-22 07:52:00,29.3,21.1,30.34,NE,38,0.0,0.0,71,0.00,,SKC,0.00,VWS V14.01,2013-01-22 13:52:00,
2013-01-22 07:57:00,29.5,21.3,30.34,NE,38,0.0,0.0,71,0.00,,SKC,0.00,VWS V14.01,2013-01-22 13:57:00,
2013-01-22 08:02:00,29.7,21.1,30.34,NE,38,0.0,1.0,70,0.00,,SKC,0.00,VWS V14.01,2013-01-22 14:02:00,
2013-01-22 08:07:00,30.0,21.1,30.34,NNE,33,0.0,0.0,69,0.00,,SKC,0.00,VWS V14.01,2013-01-22 14:07:00,
2013-01-22 08:12:00,30.3,21.0,30.34,North,360,0.0,1.0,68,0.00,,SKC,0.00,VWS V14.01,2013-01-22 14:12:00,
2013-01-22 08:17:00,30.6,21.3,30.35,NW,306,0.0,1.0,68,0.00,,SKC,0.00,VWS V14.01,2013-01-22 14:17:00,
2013-01-22 08:22:00,30.8,20.4,30.35,East,92,0.0,0.0,65,0.00,,SKC,0.00,VWS V14.01,2013-01-22 14:22:00,
2013-01-22 08:27:00,31.1,21.1,30.35,NW,306,1.0,1.0,66,0.00,,SKC,0.00,VWS V14.01,2013-01-22 14:27:00,
2013-01-22 08:32:00,31.6,21.2,30.35,NE,54,0.0,0.0,65,0.00,,SKC,0.00,VWS V14.01,2013-01-22 14:32:00,
2013-01-22 08:37:00,31.9,21.1,30.35,NE,51,0.0,0.0,64,0.00,,SKC,0.00,VWS V14.01,2013-01-22 14:37:00,
2013-01-22 08:42:00,32.2,21.0,30.35,NNW,348,2.0,2.0,63,0.00,,SKC,0.00,VWS V14.01,2013-01-22 14:42:00,
2013-01-22 08:47:00,32.6,21.0,30.35,ENE,59,4.0,5.0,62,0.00,,SKC,0.00,VWS V14.01,2013-01-22 14:47:00,
2013-01-22 08:52:00,32.9,20.9,30.36,NE,36,0.0,0.0,61,0.00,,SKC,0.00,VWS V14.01,2013-01-22 14:52:00,
2013-01-22 08:57:00,33.2,20.8,30.36,ESE,110,5.0,5.0,60,0.00,,SKC,0.00,VWS V14.01,2013-01-22 14:57:00,
2013-01-22 09:02:00,33.4,20.6,30.36,ENE,78,2.0,4.0,59,0.00,,SKC,0.00,VWS V14.01,2013-01-22 15:02:00,
2013-01-22 09:07:00,33.8,21.0,30.36,ENE,64,0.0,0.0,59,0.00,,SKC,0.00,VWS V14.01,2013-01-22 15:07:00,
2013-01-22 09:12:00,34.3,21.5,30.36,East,90,0.0,0.0,59,0.00,,SKC,0.00,VWS V14.01,2013-01-22 15:12:00,
2013-01-22 09:18:00,34.4,21.2,30.37,NNE,30,0.0,3.0,58,0.00,,SKC,0.00,VWS V14.01,2013-01-22 15:18:00,
2013-01-22 09:23:00,34.4,21.2,30.37,ENE,73,1.0,2.0,58,0.00,,SKC,0.00,VWS V14.01,2013-01-22 15:23:00,
2013-01-22 09:28:00,34.8,22.0,30.37,NE,53,0.0,0.0,59,0.00,,SKC,0.00,VWS V14.01,2013-01-22 15:28:00,
2013-01-22 09:33:00,35.2,21.9,30.38,SE,132,1.0,1.0,58,0.00,,SKC,0.00,VWS V14.01,2013-01-22 15:33:00,
2013-01-22 09:38:00,35.5,21.4,30.38,SSE,150,1.0,3.0,56,0.00,,SKC,0.00,VWS V14.01,2013-01-22 15:38:00,
2013-01-22 09:43:00,35.9,21.8,30.37,SE,144,0.0,3.0,56,0.00,,SKC,0.00,VWS V14.01,2013-01-22 15:43:00,
2013-01-22 09:48:00,36.2,21.6,30.37,ENE,71,2.0,2.0,55,0.00,,SKC,0.00,VWS V14.01,2013-01-22 15:48:00,
2013-01-22 09:53:00,36.5,21.0,30.37,North,10,4.0,4.0,53,0.00,,SKC,0.00,VWS V14.01,2013-01-22 15:53:00,
2013-01-22 09:58:00,36.8,21.3,30.37,North,10,5.0,5.0,53,0.00,,SKC,0.00,VWS V14.01,2013-01-22 15:58:00,
2013-01-22 10:03:00,37.1,21.6,30.37,ENE,69,4.0,4.0,53,0.00,,SKC,0.00,VWS V14.01,2013-01-22 16:03:00,
2013-01-22 10:08:00,37.4,21.9,30.37,ENE,75,1.0,2.0,53,0.00,,SKC,0.00,VWS V14.01,2013-01-22 16:08:00,
2013-01-22 10:13:00,37.8,21.3,30.37,WSW,257,1.0,2.0,51,0.00,,SKC,0.00,VWS V14.01,2013-01-22 16:13:00,
2013-01-22 10:18:00,37.7,21.2,30.37,ENE,61,4.0,4.0,51,0.00,,SKC,0.00,VWS V14.01,2013-01-22 16:18:00,
2013-01-22 10:23:00,37.5,21.0,30.37,NNW,327,0.0,0.0,51,0.00,,SKC,0.00,VWS V14.01,2013-01-22 16:23:00,
2013-01-22 10:28:00,37.9,21.4,30.37,ENE,64,0.0,2.0,51,0.00,,SKC,0.00,VWS V14.01,2013-01-22 16:28:00,
2013-01-22 10:34:00,38.3,21.3,30.37,SSE,158,1.0,3.0,50,0.00,,SKC,0.00,VWS V14.01,2013-01-22 16:34:00,
2013-01-22 10:39:00,38.8,21.3,30.37,NNW,327,0.0,5.0,49,0.00,,SKC,0.00,VWS V14.01,2013-01-22 16:39:00,
2013-01-22 10:44:00,39.2,21.7,30.37,NW,309,4.0,4.0,49,0.00,,SKC,0.00,VWS V14.01,2013-01-22 16:44:00,
2013-01-22 10:49:00,39.6,21.5,30.37,East,86,2.0,2.0,48,0.00,,SKC,0.00,VWS V14.01,2013-01-22 16:49:00,
2013-01-22 10:54:00,39.9,21.8,30.36,ENE,63,2.0,4.0,48,0.00,,SKC,0.00,VWS V14.01,2013-01-22 16:54:00,
2013-01-22 10:59:00,40.1,21.5,30.36,ENE,63,1.0,5.0,47,0.00,,SKC,0.00,VWS V14.01,2013-01-22 16:59:00,
2013-01-22 11:04:00,40.1,21.5,30.36,NNE,23,0.0,1.0,47,0.00,,SKC,0.00,VWS V14.01,2013-01-22 17:04:00,
2013-01-22 11:09:00,40.9,22.7,30.36,ENE,70,0.0,4.0,48,0.00,,SKC,0.00,VWS V14.01,2013-01-22 17:09:00,
2013-01-22 11:14:00,41.3,22.1,30.36,ENE,57,6.0,6.0,46,0.00,,SKC,0.00,VWS V14.01,2013-01-22 17:14:00,
2013-01-22 11:19:00,41.2,22.5,30.36,NE,36,1.0,1.0,47,0.00,,SKC,0.00,VWS V14.01,2013-01-22 17:19:00,
2013-01-22 11:24:00,41.3,22.1,30.35,WNW,285,1.0,2.0,46,0.00,,SKC,0.00,VWS V14.01,2013-01-22 17:24:00,
2013-01-22 11:29:00,41.7,23.0,30.35,NE,40,0.0,0.0,47,0.00,,SKC,0.00,VWS V14.01,2013-01-22 17:29:00,
2013-01-22 11:34:00,42.1,22.8,30.35,NNW,330,2.0,3.0,46,0.00,,SKC,0.00,VWS V14.01,2013-01-22 17:34:00,
2013-01-22 11:39:00,42.2,22.9,30.34,NE,40,3.0,5.0,46,0.00,,SKC,0.00,VWS V14.01,2013-01-22 17:39:00,
2013-01-22 11:44:00,42.1,22.8,30.34,SE,132,0.0,0.0,46,0.00,,SKC,0.00,VWS V14.01,2013-01-22 17:44:00,
2013-01-22 11:49:00,42.5,23.2,30.33,NNE,13,0.0,1.0,46,0.00,,SKC,0.00,VWS V14.01,2013-01-22 17:49:00,
2013-01-22 11:54:00,42.5,23.2,30.33,NNE,17,0.0,2.0,46,0.00,,SKC,0.00,VWS V14.01,2013-01-22 17:54:00,
2013-01-22 11:59:00,42.4,23.1,30.33,NE,52,1.0,3.0,46,0.00,,SKC,0.00,VWS V14.01,2013-01-22 17:59:00,
2013-01-22 12:04:00,42.4,22.6,30.33,ENE,67,0.0,3.0,45,0.00,,SKC,0.00,VWS V14.01,2013-01-22 18:04:00,
2013-01-22 12:09:00,43.1,24.3,30.33,NE,48,0.0,0.0,47,0.00,,SKC,0.00,VWS V14.01,2013-01-22 18:09:00,
2013-01-22 12:14:00,43.2,23.3,30.33,NE,42,2.0,3.0,45,0.00,,SKC,0.00,VWS V14.01,2013-01-22 18:14:00,
2013-01-22 12:19:00,42.8,23.0,30.33,ENE,61,0.0,0.0,45,0.00,,SKC,0.00,VWS V14.01,2013-01-22 18:19:00,
2013-01-22 12:24:00,42.9,23.6,30.32,ESE,113,1.0,5.0,46,0.00,,SKC,0.00,VWS V14.01,2013-01-22 18:24:00,
2013-01-22 12:29:00,43.1,23.7,30.32,NNW,338,4.0,6.0,46,0.00,,SKC,0.00,VWS V14.01,2013-01-22 18:29:00,
2013-01-22 12:34:00,43.5,23.6,30.32,West,268,2.0,3.0,45,0.00,,SKC,0.00,VWS V14.01,2013-01-22 18:34:00,
2013-01-22 12:39:00,43.7,23.2,30.31,SW,229,1.0,2.0,44,0.00,,SKC,0.00,VWS V14.01,2013-01-22 18:39:00,
2013-01-22 12:45:00,44.0,23.5,30.31,WSW,241,6.0,6.0,44,0.00,,SKC,0.00,VWS V14.01,2013-01-22 18:45:00,
2013-01-22 12:50:00,44.0,23.5,30.31,ENE,67,5.0,11.0,44,0.00,,SKC,0.00,VWS V14.01,2013-01-22 18:50:00,
2013-01-22 12:55:00,43.8,23.3,30.31,ESE,105,0.0,1.0,44,0.00,,SKC,0.00,VWS V14.01,2013-01-22 18:55:00,
2013-01-22 13:00:00,44.4,23.9,30.31,West,271,2.0,3.0,44,0.00,,SKC,0.00,VWS V14.01,2013-01-22 19:00:00,
2013-01-22 13:05:00,44.9,24.3,30.30,SW,233,4.0,5.0,44,0.00,,SKC,0.00,VWS V14.01,2013-01-22 19:05:00,
2013-01-22 13:10:00,45.0,24.4,30.30,WSW,248,3.0,3.0,44,0.00,,SKC,0.00,VWS V14.01,2013-01-22 19:10:00,
2013-01-22 13:16:00,45.3,24.1,30.30,West,275,0.0,6.0,43,0.00,,SKC,0.00,VWS V14.01,2013-01-22 19:16:00,
2013-01-22 13:21:00,45.2,24.6,30.30,West,268,0.0,0.0,44,0.00,,SKC,0.00,VWS V14.01,2013-01-22 19:21:00,
2013-01-22 13:26:00,45.1,24.0,30.30,SE,128,2.0,6.0,43,0.00,,SKC,0.00,VWS V14.01,2013-01-22 19:26:00,
2013-01-22 13:31:00,44.8,24.8,30.30,NNE,13,0.0,0.0,45,0.00,,SKC,0.00,VWS V14.01,2013-01-22 19:31:00,
2013-01-22 13:36:00,45.1,24.0,30.30,North,5,0.0,3.0,43,0.00,,SKC,0.00,VWS V14.01,2013-01-22 19:36:00,
2013-01-22 13:41:00,45.3,24.7,30.30,WSW,250,0.0,0.0,44,0.00,,SKC,0.00,VWS V14.01,2013-01-22 19:41:00,
2013-01-22 13:46:00,45.7,25.6,30.30,WSW,245,1.0,1.0,45,0.00,,SKC,0.00,VWS V14.01,2013-01-22 19:46:00,
2013-01-22 13:51:00,45.9,24.7,30.30,SSW,203,1.0,3.0,43,0.00,,SKC,0.00,VWS V14.01,2013-01-22 19:51:00,
2013-01-22 13:56:00,45.9,24.7,30.30,North,360,1.0,3.0,43,0.00,,SKC,0.00,VWS V14.01,2013-01-22 19:56:00,
2013-01-22 14:01:00,46.1,24.9,30.30,ENE,69,0.0,1.0,43,0.00,,SKC,0.00,VWS V14.01,2013-01-22 20:01:00,
2013-01-22 14:06:00,46.0,24.8,30.29,West,268,2.0,3.0,43,0.00,,SKC,0.00,VWS V14.01,2013-01-22 20:06:00,
2013-01-22 14:12:00,46.0,24.8,30.29,ESE,102,2.0,7.0,43,0.00,,SKC,0.00,VWS V14.01,2013-01-22 20:12:00,
2013-01-22 14:17:00,46.1,25.4,30.29,North,355,3.0,4.0,44,0.00,,SKC,0.00,VWS V14.01,2013-01-22 20:17:00,
2013-01-22 14:22:00,46.6,25.3,30.29,SW,218,2.0,2.0,43,0.00,,SKC,0.00,VWS V14.01,2013-01-22 20:22:00,
2013-01-22 14:27:00,46.7,25.4,30.29,West,276,0.0,4.0,43,0.00,,SKC,0.00,VWS V14.01,2013-01-22 20:27:00,
2013-01-22 14:32:00,46.1,24.9,30.29,WSW,257,2.0,3.0,43,0.00,,SKC,0.00,VWS V14.01,2013-01-22 20:32:00,
2013-01-22 14:37:00,46.0,24.8,30.29,NNE,14,0.0,3.0,43,0.00,,SKC,0.00,VWS V14.01,2013-01-22 20:37:00,
2013-01-22 14:42:00,45.8,24.6,30.29,WSW,250,1.0,4.0,43,0.00,,SKC,0.00,VWS V14.01,2013-01-22 20:42:00,
2013-01-22 14:47:00,46.3,25.0,30.29,West,271,0.0,5.0,43,0.00,,SKC,0.00,VWS V14.01,2013-01-22 20:47:00,
2013-01-22 14:52:00,46.9,26.1,30.29,West,275,0.0,1.0,44,0.00,,SKC,0.00,VWS V14.01,2013-01-22 20:52:00,
2013-01-22 14:57:00,47.2,25.3,30.30,WSW,257,3.0,5.0,42,0.00,,SKC,0.00,VWS V14.01,2013-01-22 20:57:00,
2013-01-22 15:02:00,46.7,25.4,30.29,SW,225,2.0,4.0,43,0.00,,SKC,0.00,VWS V14.01,2013-01-22 21:02:00,
2013-01-22 15:07:00,46.4,25.1,30.29,East,79,3.0,3.0,43,0.00,,SKC,0.00,VWS V14.01,2013-01-22 21:07:00,
2013-01-22 15:12:00,46.3,25.0,30.29,NE,41,1.0,1.0,43,0.00,,SKC,0.00,VWS V14.01,2013-01-22 21:12:00,
2013-01-22 15:17:00,46.2,25.0,30.29,South,183,0.0,0.0,43,0.00,,SKC,0.00,VWS V14.01,2013-01-22 21:17:00,
2013-01-22 15:22:00,46.7,26.0,30.29,WNW,282,2.0,2.0,44,0.00,,SKC,0.00,VWS V14.01,2013-01-22 21:22:00,
2013-01-22 15:27:00,47.0,25.7,30.29,East,101,3.0,3.0,43,0.00,,SKC,0.00,VWS V14.01,2013-01-22 21:27:00,
2013-01-22 15:31:00,46.7,26.0,30.28,SE,142,0.0,0.0,44,0.00,,SKC,0.00,VWS V14.01,2013-01-22 21:31:00,
2013-01-22 15:36:00,46.5,25.2,30.29,NE,41,0.0,1.0,43,0.00,,SKC,0.00,VWS V14.01,2013-01-22 21:36:00,
2013-01-22 15:41:00,46.5,25.8,30.29,WNW,282,2.0,2.0,44,0.00,,SKC,0.00,VWS V14.01,2013-01-22 21:41:00,
2013-01-22 15:46:00,46.4,25.7,30.29,WNW,283,0.0,0.0,44,0.00,,SKC,0.00,VWS V14.01,2013-01-22 21:46:00,
2013-01-22 15:52:00,46.6,25.3,30.29,WNW,283,1.0,4.0,43,0.00,,SKC,0.00,VWS V14.01,2013-01-22 21:52:00,
2013-01-22 15:57:00,46.9,26.1,30.29,WNW,283,0.0,0.0,44,0.00,,SKC,0.00,VWS V14.01,2013-01-22 21:57:00,
2013-01-22 16:02:00,47.0,25.7,30.29,West,269,2.0,2.0,43,0.00,,SKC,0.00,VWS V14.01,2013-01-22 22:02:00,
2013-01-22 16:07:00,46.9,26.7,30.29,West,268,0.0,1.0,45,0.00,,SKC,0.00,VWS V14.01,2013-01-22 22:07:00,
2013-01-22 16:12:00,46.4,26.2,30.30,ESE,115,0.0,0.0,45,0.00,,SKC,0.00,VWS V14.01,2013-01-22 22:12:00,
2013-01-22 16:17:00,46.0,25.9,30.29,East,81,0.0,1.0,45,0.00,,SKC,0.00,VWS V14.01,2013-01-22 22:17:00,
2013-01-22 16:22:00,45.8,25.7,30.29,South,178,0.0,0.0,45,0.00,,SKC,0.00,VWS V14.01,2013-01-22 22:22:00,
2013-01-22 16:27:00,45.6,26.0,30.30,NW,311,0.0,0.0,46,0.00,,SKC,0.00,VWS V14.01,2013-01-22 22:27:00,
2013-01-22 16:32:00,45.3,26.8,30.30,NE,36,2.0,2.0,48,0.00,,SKC,0.00,VWS V14.01,2013-01-22 22:32:00,
2013-01-22 16:37:00,45.0,25.5,30.30,NE,34,0.0,0.0,46,0.00,,SKC,0.00,VWS V14.01,2013-01-22 22:37:00,
2013-01-22 16:42:00,44.6,26.1,30.30,West,281,1.0,1.0,48,0.00,,SKC,0.00,VWS V14.01,2013-01-22 22:42:00,
2013-01-22 16:47:00,44.2,25.8,30.30,West,277,0.0,2.0,48,0.00,,SKC,0.00,VWS V14.01,2013-01-22 22:47:00,
2013-01-22 16:52:00,43.8,26.4,30.30,West,277,0.0,0.0,50,0.00,,SKC,0.00,VWS V14.01,2013-01-22 22:52:00,
2013-01-22 16:57:00,43.4,26.0,30.30,West,278,0.0,0.0,50,0.00,,SKC,0.00,VWS V14.01,2013-01-22 22:57:00,
2013-01-22 17:02:00,43.0,26.1,30.31,West,277,0.0,0.0,51,0.00,,SKC,0.00,VWS V14.01,2013-01-22 23:02:00,
2013-01-22 17:07:00,42.6,27.1,30.31,West,277,0.0,0.0,54,0.00,,SKC,0.00,VWS V14.01,2013-01-22 23:07:00,
2013-01-22 17:12:00,42.1,26.2,30.31,West,277,0.0,0.0,53,0.00,,SKC,0.00,VWS V14.01,2013-01-22 23:12:00,
2013-01-22 17:17:00,41.7,26.3,30.31,West,277,0.0,0.0,54,0.00,,SKC,0.00,VWS V14.01,2013-01-22 23:17:00,
2013-01-22 17:22:00,41.3,26.4,30.31,West,277,0.0,0.0,55,0.00,,SKC,0.00,VWS V14.01,2013-01-22 23:22:00,
2013-01-22 17:27:00,40.9,26.4,30.31,West,277,0.0,0.0,56,0.00,,SKC,0.00,VWS V14.01,2013-01-22 23:27:00,
2013-01-22 17:32:00,40.5,26.0,30.31,West,277,0.0,0.0,56,0.00,,SKC,0.00,VWS V14.01,2013-01-22 23:32:00,
2013-01-22 17:37:00,40.1,26.5,30.31,West,277,0.0,0.0,58,0.00,,SKC,0.00,VWS V14.01,2013-01-22 23:37:00,
2013-01-22 17:42:00,39.7,27.0,30.31,West,277,0.0,0.0,60,0.00,,SKC,0.00,VWS V14.01,2013-01-22 23:42:00,
2013-01-22 17:47:00,39.3,26.6,30.32,West,277,0.0,0.0,60,0.00,,SKC,0.00,VWS V14.01,2013-01-22 23:47:00,
2013-01-22 17:52:00,39.0,26.3,30.32,West,277,0.0,0.0,60,0.00,,SKC,0.00,VWS V14.01,2013-01-22 23:52:00,
2013-01-22 17:57:00,38.7,26.4,30.32,West,277,0.0,0.0,61,0.00,,SKC,0.00,VWS V14.01,2013-01-22 23:57:00,
2013-01-22 18:02:00,38.4,25.7,30.32,West,277,0.0,0.0,60,0.00,,SKC,0.00,VWS V14.01,2013-01-23 00:02:00,
2013-01-22 18:07:00,38.3,25.6,30.32,West,277,0.0,0.0,60,0.00,,SKC,0.00,VWS V14.01,2013-01-23 00:07:00,
2013-01-22 18:13:00,38.1,25.5,30.32,West,277,0.0,0.0,60,0.00,,SKC,0.00,VWS V14.01,2013-01-23 00:13:00,
2013-01-22 18:18:00,38.0,25.0,30.31,West,277,0.0,0.0,59,0.00,,SKC,0.00,VWS V14.01,2013-01-23 00:18:00,
2013-01-22 18:23:00,37.8,25.6,30.31,West,277,0.0,0.0,61,0.00,,SKC,0.00,VWS V14.01,2013-01-23 00:23:00,
2013-01-22 18:28:00,37.5,25.7,30.31,West,277,0.0,0.0,62,0.00,,SKC,0.00,VWS V14.01,2013-01-23 00:28:00,
2013-01-22 18:33:00,37.2,25.4,30.31,West,277,0.0,0.0,62,0.00,,SKC,0.00,VWS V14.01,2013-01-23 00:33:00,
2013-01-22 18:38:00,36.9,25.9,30.31,West,277,0.0,0.0,64,0.00,,SKC,0.00,VWS V14.01,2013-01-23 00:38:00,
2013-01-22 18:43:00,36.6,25.2,30.31,West,277,0.0,0.0,63,0.00,,SKC,0.00,VWS V14.01,2013-01-23 00:43:00,
2013-01-22 18:48:00,36.3,25.3,30.31,West,277,0.0,0.0,64,0.00,,SKC,0.00,VWS V14.01,2013-01-23 00:48:00,
2013-01-22 18:53:00,36.0,25.0,30.31,West,277,0.0,0.0,64,0.00,,SKC,0.00,VWS V14.01,2013-01-23 00:53:00,
2013-01-22 18:58:00,35.7,25.1,30.31,West,277,0.0,0.0,65,0.00,,SKC,0.00,VWS V14.01,2013-01-23 00:58:00,
2013-01-22 19:03:00,35.4,25.2,30.31,West,277,0.0,0.0,66,0.00,,SKC,0.00,VWS V14.01,2013-01-23 01:03:00,
2013-01-22 19:08:00,35.0,25.2,30.31,West,277,0.0,0.0,67,0.00,,SKC,0.00,VWS V14.01,2013-01-23 01:08:00,
2013-01-22 19:13:00,34.7,24.9,30.32,West,277,0.0,0.0,67,0.00,,SKC,0.00,VWS V14.01,2013-01-23 01:13:00,
2013-01-22 19:18:00,34.4,25.6,30.31,West,277,0.0,0.0,70,0.00,,SKC,0.00,VWS V14.01,2013-01-23 01:18:00,
2013-01-22 19:23:00,34.4,25.6,30.31,West,277,0.0,0.0,70,0.00,,SKC,0.00,VWS V14.01,2013-01-23 01:23:00,
2013-01-22 19:28:00,34.1,25.4,30.31,West,277,0.0,0.0,70,0.00,,SKC,0.00,VWS V14.01,2013-01-23 01:28:00,
2013-01-22 19:33:00,33.8,25.4,30.31,West,277,0.0,0.0,71,0.00,,SKC,0.00,VWS V14.01,2013-01-23 01:33:00,
2013-01-22 19:38:00,33.6,25.2,30.32,West,277,0.0,0.0,71,0.00,,SKC,0.00,VWS V14.01,2013-01-23 01:38:00,
2013-01-22 19:44:00,33.7,25.0,30.32,West,277,0.0,0.0,70,0.00,,SKC,0.00,VWS V14.01,2013-01-23 01:44:00,
2013-01-22 19:49:00,34.0,25.6,30.32,West,277,0.0,0.0,71,0.00,,SKC,0.00,VWS V14.01,2013-01-23 01:49:00,
2013-01-22 19:54:00,34.0,25.9,30.32,West,277,0.0,0.0,72,0.00,,SKC,0.00,VWS V14.01,2013-01-23 01:54:00,
2013-01-22 19:59:00,33.7,25.6,30.32,West,277,0.0,0.0,72,0.00,,SKC,0.00,VWS V14.01,2013-01-23 01:59:00,
2013-01-22 20:04:00,33.4,25.7,30.32,West,277,0.0,0.0,73,0.00,,SKC,0.00,VWS V14.01,2013-01-23 02:04:00,
2013-01-22 20:09:00,32.9,25.2,30.32,West,277,0.0,0.0,73,0.00,,SKC,0.00,VWS V14.01,2013-01-23 02:09:00,
2013-01-22 20:14:00,32.5,24.8,30.32,West,277,0.0,0.0,73,0.00,,SKC,0.00,VWS V14.01,2013-01-23 02:14:00,
2013-01-22 20:19:00,32.2,25.2,30.32,West,277,0.0,0.0,75,0.00,,SKC,0.00,VWS V14.01,2013-01-23 02:19:00,
2013-01-22 20:24:00,31.9,25.2,30.32,West,277,0.0,0.0,76,0.00,,SKC,0.00,VWS V14.01,2013-01-23 02:24:00,
2013-01-22 20:29:00,31.6,24.9,30.32,West,277,0.0,0.0,76,0.00,,SKC,0.00,VWS V14.01,2013-01-23 02:29:00,
2013-01-22 20:34:00,31.3,25.2,30.32,West,277,0.0,0.0,78,0.00,,SKC,0.00,VWS V14.01,2013-01-23 02:34:00,
2013-01-22 20:39:00,31.1,25.0,30.32,West,277,0.0,0.0,78,0.00,,SKC,0.00,VWS V14.01,2013-01-23 02:39:00,
2013-01-22 20:44:00,30.9,24.9,30.32,West,277,0.0,0.0,78,0.00,,SKC,0.00,VWS V14.01,2013-01-23 02:44:00,
2013-01-22 20:49:00,30.7,25.0,30.32,West,277,0.0,0.0,79,0.00,,SKC,0.00,VWS V14.01,2013-01-23 02:49:00,
2013-01-22 20:54:00,30.6,24.9,30.32,West,277,0.0,0.0,79,0.00,,SKC,0.00,VWS V14.01,2013-01-23 02:54:00,
2013-01-22 20:59:00,30.6,24.6,30.32,West,277,0.0,0.0,78,0.00,,SKC,0.00,VWS V14.01,2013-01-23 02:59:00,
2013-01-22 21:04:00,30.5,24.5,30.32,West,277,0.0,0.0,78,0.00,,SKC,0.00,VWS V14.01,2013-01-23 03:04:00,
2013-01-22 21:09:00,30.5,24.5,30.32,West,277,0.0,0.0,78,0.00,,SKC,0.00,VWS V14.01,2013-01-23 03:09:00,
2013-01-22 21:14:00,30.6,24.6,30.31,West,277,0.0,0.0,78,0.00,,SKC,0.00,VWS V14.01,2013-01-23 03:14:00,
2013-01-22 21:19:00,30.6,24.3,30.31,West,277,0.0,0.0,77,0.00,,SKC,0.00,VWS V14.01,2013-01-23 03:19:00,
2013-01-22 21:24:00,30.5,24.2,30.31,West,277,0.0,0.0,77,0.00,,SKC,0.00,VWS V14.01,2013-01-23 03:24:00,
2013-01-22 21:29:00,30.4,24.7,30.31,West,277,0.0,0.0,79,0.00,,SKC,0.00,VWS V14.01,2013-01-23 03:29:00,
2013-01-22 21:34:00,30.5,25.1,30.31,West,277,0.0,0.0,80,0.00,,SKC,0.00,VWS V14.01,2013-01-23 03:34:00,
2013-01-22 21:40:00,30.4,25.3,30.31,West,277,0.0,0.0,81,0.00,,SKC,0.00,VWS V14.01,2013-01-23 03:40:00,
2013-01-22 21:45:00,30.0,24.9,30.32,West,277,0.0,0.0,81,0.00,,SKC,0.00,VWS V14.01,2013-01-23 03:45:00,
2013-01-22 21:50:00,29.7,24.6,30.31,West,277,0.0,0.0,81,0.00,,SKC,0.00,VWS V14.01,2013-01-23 03:50:00,
2013-01-22 21:55:00,29.6,24.8,30.32,West,277,0.0,0.0,82,0.00,,SKC,0.00,VWS V14.01,2013-01-23 03:55:00,
2013-01-22 22:00:00,29.4,24.6,30.31,West,277,0.0,0.0,82,0.00,,SKC,0.00,VWS V14.01,2013-01-23 04:00:00,
2013-01-22 22:05:00,29.3,24.5,30.32,West,277,0.0,0.0,82,0.00,,SKC,0.00,VWS V14.01,2013-01-23 04:05:00,
2013-01-22 22:10:00,29.1,24.6,30.32,West,277,0.0,0.0,83,0.00,,SKC,0.00,VWS V14.01,2013-01-23 04:10:00,
2013-01-22 22:15:00,28.9,24.4,30.32,West,277,0.0,0.0,83,0.00,,SKC,0.00,VWS V14.01,2013-01-23 04:15:00,
2013-01-22 22:20:00,28.8,24.6,30.31,West,277,0.0,0.0,84,0.00,,SKC,0.00,VWS V14.01,2013-01-23 04:20:00,
2013-01-22 22:25:00,28.7,24.5,30.32,West,277,0.0,0.0,84,0.00,,SKC,0.00,VWS V14.01,2013-01-23 04:25:00,
2013-01-22 22:30:00,28.6,24.4,30.32,West,277,0.0,0.0,84,0.00,,SKC,0.00,VWS V14.01,2013-01-23 04:30:00,
2013-01-22 22:35:00,28.8,24.6,30.32,West,277,0.0,0.0,84,0.00,,SKC,0.00,VWS V14.01,2013-01-23 04:35:00,
2013-01-22 22:40:00,28.8,24.6,30.32,West,277,0.0,0.0,84,0.00,,SKC,0.00,VWS V14.01,2013-01-23 04:40:00,
2013-01-22 22:45:00,28.9,25.0,30.32,West,277,0.0,0.0,85,0.00,,SKC,0.00,VWS V14.01,2013-01-23 04:45:00,
2013-01-22 22:50:00,29.0,25.1,30.32,West,277,0.0,0.0,85,0.00,,SKC,0.00,VWS V14.01,2013-01-23 04:50:00,
2013-01-22 22:55:00,29.0,24.8,30.32,West,277,0.0,0.0,84,0.00,,SKC,0.00,VWS V14.01,2013-01-23 04:55:00,
2013-01-22 23:00:00,28.9,24.7,30.32,West,277,0.0,0.0,84,0.00,,SKC,0.00,VWS V14.01,2013-01-23 05:00:00,
2013-01-22 23:03:00,28.9,24.7,30.32,West,277,0.0,0.0,84,0.00,,SKC,0.00,VWS V14.01,2013-01-23 05:03:00,
2013-01-22 23:04:00,28.9,24.7,30.32,West,277,0.0,0.0,84,0.00,,SKC,0.00,VWS V14.01,2013-01-23 05:04:00,
2013-01-22 23:09:00,28.7,24.8,30.31,West,277,0.0,0.0,85,0.00,,SKC,0.00,VWS V14.01,2013-01-23 05:09:00,
2013-01-22 23:14:00,28.4,24.5,30.31,West,277,0.0,0.0,85,0.00,,SKC,0.00,VWS V14.01,2013-01-23 05:14:00,
2013-01-22 23:19:00,28.0,24.1,30.31,West,277,0.0,0.0,85,0.00,,SKC,0.00,VWS V14.01,2013-01-23 05:19:00,
2013-01-22 23:24:00,27.7,24.1,30.31,West,277,0.0,0.0,86,0.00,,SKC,0.00,VWS V14.01,2013-01-23 05:24:00,
2013-01-22 23:29:00,27.6,24.0,30.31,West,277,0.0,0.0,86,0.00,,SKC,0.00,VWS V14.01,2013-01-23 05:29:00,
2013-01-22 23:34:00,27.7,24.3,30.31,West,277,0.0,0.0,87,0.00,,SKC,0.00,VWS V14.01,2013-01-23 05:34:00,
2013-01-22 23:39:00,27.8,24.4,30.31,West,277,0.0,0.0,87,0.00,,SKC,0.00,VWS V14.01,2013-01-23 05:39:00,
2013-01-22 23:44:00,27.9,24.5,30.31,West,277,0.0,0.0,87,0.00,,SKC,0.00,VWS V14.01,2013-01-23 05:44:00,
2013-01-22 23:49:00,27.9,24.5,30.32,West,277,0.0,0.0,87,0.00,,SKC,0.00,VWS V14.01,2013-01-23 05:49:00,
2013-01-22 23:54:00,27.9,24.5,30.31,West,277,0.0,0.0,87,0.00,,SKC,0.00,VWS V14.01,2013-01-23 05:54:00,
2013-01-22 23:59:00,27.8,24.4,30.31,West,277,0.0,0.0,87,0.00,,SKC,0.00,VWS V14.01,2013-01-23 05:59:00,